Time;durP1;ratioP1;P1;durP2;ratioP2;P2;SDS_P1;SDS_P2;PMS_P1;PMS_P2;Temp;Humidity;BMP_temperature;BMP_pressure;BME280_temperature;BME280_humidity;BME280_pressure;Samples;Min_cycle;Max_cycle;Signal;HPM_P1;HPM_P2
2021/09/26 00:01:41;;;;;;;9.10;8.20;;;15.70;99.90;;;;;;4998070;28;20208;-70
2021/09/26 00:04:06;;;;;;;9.67;8.77;;;15.80;99.90;;;;;;4996574;28;20366;-70
2021/09/26 00:06:32;;;;;;;14.33;8.30;;;15.70;99.90;;;;;;4995253;28;20188;-69
2021/09/26 00:08:58;;;;;;;8.10;7.40;;;15.70;99.90;;;;;;4995743;28;20677;-70
2021/09/26 00:11:24;;;;;;;7.23;6.53;;;15.80;99.90;;;;;;4995939;28;20567;-69
2021/09/26 00:13:50;;;;;;;7.50;6.87;;;15.80;99.90;;;;;;4997083;28;20173;-70
2021/09/26 00:16:16;;;;;;;7.40;6.70;;;15.80;99.90;;;;;;4997550;28;20431;-70
2021/09/26 00:18:42;;;;;;;7.07;6.37;;;15.80;99.90;;;;;;4997353;28;20497;-70
2021/09/26 00:21:09;;;;;;;9.33;7.27;;;15.90;99.90;;;;;;4997372;28;20415;-69
2021/09/26 00:23:35;;;;;;;7.50;6.90;;;15.90;99.90;;;;;;4994939;28;20176;-70
2021/09/26 00:26:02;;;;;;;7.43;6.83;;;15.80;99.90;;;;;;4995422;28;20463;-70
2021/09/26 00:28:28;;;;;;;8.17;7.33;;;15.80;99.90;;;;;;4995011;28;20558;-71
2021/09/26 00:30:55;;;;;;;8.00;7.20;;;15.80;99.90;;;;;;4995853;28;20501;-71
2021/09/26 00:33:20;;;;;;;8.37;7.60;;;15.80;99.90;;;;;;4995366;28;20771;-69
2021/09/26 00:35:46;;;;;;;6.80;6.30;;;15.90;99.90;;;;;;4994056;28;20428;-69
2021/09/26 00:38:12;;;;;;;7.93;6.90;;;15.90;99.90;;;;;;4995456;28;20196;-70
2021/09/26 00:40:37;;;;;;;7.70;6.90;;;16.00;99.90;;;;;;4995909;28;20215;-69
2021/09/26 00:43:04;;;;;;;11.87;7.13;;;16.00;99.90;;;;;;4996696;28;20267;-68
2021/09/26 00:45:29;;;;;;;7.23;6.63;;;16.00;99.90;;;;;;4996367;28;20215;-70
2021/09/26 00:47:55;;;;;;;7.53;6.77;;;16.10;99.90;;;;;;4995386;28;20521;-70
2021/09/26 00:50:21;;;;;;;8.00;7.20;;;16.10;99.90;;;;;;4994768;28;20187;-70
2021/09/26 00:52:48;;;;;;;7.60;6.80;;;16.20;99.90;;;;;;4994747;28;20325;-70
2021/09/26 00:55:15;;;;;;;7.43;6.73;;;16.20;99.90;;;;;;4995218;28;20439;-69
2021/09/26 00:57:42;;;;;;;7.67;6.97;;;16.20;99.90;;;;;;4994656;28;20447;-69
2021/09/26 01:00:11;;;;;;;8.17;6.30;;;16.30;99.90;;;;;;4994699;28;20530;-69
2021/09/26 01:02:36;;;;;;;7.37;6.77;;;16.30;99.90;;;;;;4994835;28;20415;-70
2021/09/26 01:05:04;;;;;;;8.13;7.43;;;16.30;99.90;;;;;;4993559;28;20459;-70
2021/09/26 01:07:39;;;;;;;7.83;6.80;;;16.30;99.90;;;;;;4994873;28;20211;-70
2021/09/26 01:10:07;;;;;;;7.00;6.30;;;16.30;99.90;;;;;;4995031;28;20755;-70
2021/09/26 01:12:56;;;;;;;6.80;6.20;;;16.30;99.90;;;;;;4994383;28;20404;-70
2021/09/26 01:15:43;;;;;;;8.67;7.87;;;16.40;99.90;;;;;;4994794;28;20419;-69
2021/09/26 01:18:14;;;;;;;7.00;6.30;;;16.40;99.90;;;;;;4993965;28;21042;-69
2021/09/26 01:21:04;;;;;;;7.57;6.20;;;16.30;99.90;;;;;;4995181;28;20423;-69
2021/09/26 01:24:10;;;;;;;6.17;5.57;;;16.40;99.90;;;;;;4995095;28;20522;-70
2021/09/26 01:26:43;;;;;;;6.90;6.30;;;16.40;99.90;;;;;;4953750;28;20879;-69
2021/09/26 01:29:11;;;;;;;6.43;5.83;;;16.50;99.90;;;;;;4994382;28;20439;-69
2021/09/26 01:31:49;;;;;;;7.10;6.40;;;16.50;99.90;;;;;;4994501;28;20411;-70
2021/09/26 01:34:21;;;;;;;6.90;6.30;;;16.50;99.90;;;;;;4994434;28;20802;-70
2021/09/26 01:36:55;;;;;;;11.17;7.30;;;16.50;99.90;;;;;;4993763;28;20416;-70
2021/09/26 01:39:41;;;;;;;9.90;6.90;;;16.50;99.90;;;;;;4994284;28;20410;-69
2021/09/26 01:42:22;;;;;;;7.10;6.50;;;16.50;99.90;;;;;;4994619;28;20411;-69
2021/09/26 01:45:09;;;;;;;7.23;6.53;;;16.50;99.90;;;;;;4992816;28;20517;-70
2021/09/26 01:47:55;;;;;;;7.10;6.40;;;16.50;99.90;;;;;;4993686;28;20455;-69
2021/09/26 01:50:23;;;;;;;9.10;6.53;;;16.50;99.90;;;;;;4994220;28;20466;-69
2021/09/26 01:52:51;;;;;;;8.95;7.68;;;16.60;99.90;;;;;;4993744;28;20416;-70
2021/09/26 01:55:17;;;;;;;7.80;7.00;;;16.60;99.90;;;;;;4993294;28;20195;-70
2021/09/26 01:57:43;;;;;;;7.70;7.00;;;16.60;99.90;;;;;;4993669;28;20943;-69
2021/09/26 02:00:11;;;;;;;6.47;5.87;;;16.60;99.90;;;;;;4993748;28;20423;-69
2021/09/26 02:02:40;;;;;;;7.50;6.77;;;16.60;99.90;;;;;;4994293;28;20439;-70
2021/09/26 02:05:08;;;;;;;7.33;6.70;;;16.70;99.90;;;;;;4994169;28;20870;-69
2021/09/26 02:07:38;;;;;;;7.63;6.80;;;16.70;99.90;;;;;;4993578;28;20655;-70
2021/09/26 02:10:04;;;;;;;8.10;7.30;;;16.80;99.90;;;;;;4993940;28;20458;-70
2021/09/26 02:12:31;;;;;;;6.40;5.80;;;16.80;99.90;;;;;;4992843;28;20419;-70
2021/09/26 02:14:58;;;;;;;7.00;6.30;;;16.80;99.90;;;;;;4994595;28;20420;-69
2021/09/26 02:17:27;;;;;;;7.63;6.93;;;16.80;99.90;;;;;;4994893;28;20480;-69
2021/09/26 02:20:00;;;;;;;7.23;6.30;;;16.90;99.90;;;;;;4995616;28;20431;-70
2021/09/26 02:22:27;;;;;;;7.47;6.37;;;16.90;99.90;;;;;;5006532;28;20451;-70
2021/09/26 02:24:53;;;;;;;7.43;6.80;;;16.90;99.90;;;;;;5013070;28;20463;-69
2021/09/26 02:27:19;;;;;;;6.50;5.90;;;16.90;99.90;;;;;;4996703;28;20921;-69
2021/09/26 02:29:44;;;;;;;6.40;5.90;;;17.00;99.90;;;;;;5012591;28;20433;-69
2021/09/26 02:32:10;;;;;;;9.13;7.20;;;17.00;99.90;;;;;;5017869;28;20168;-70
2021/09/26 02:34:35;;;;;;;6.90;6.30;;;17.00;99.90;;;;;;5004423;28;20629;-69
2021/09/26 02:37:01;;;;;;;7.07;5.90;;;17.10;99.90;;;;;;4997601;28;20267;-69
2021/09/26 02:39:27;;;;;;;8.27;7.47;;;17.10;99.90;;;;;;4997207;28;20185;-70
2021/09/26 02:42:05;;;;;;;9.30;7.63;;;17.10;99.90;;;;;;4997498;28;20183;-69
2021/09/26 02:44:52;;;;;;;7.20;6.50;;;17.10;99.90;;;;;;4977998;28;20504;-70
2021/09/26 02:47:23;;;;;;;7.87;7.10;;;17.10;99.90;;;;;;4977941;28;20181;-69
2021/09/26 02:49:50;;;;;;;8.10;6.80;;;17.20;99.90;;;;;;4978007;28;20455;-69
2021/09/26 02:52:17;;;;;;;7.60;6.40;;;17.20;99.90;;;;;;4977831;28;20404;-69
2021/09/26 02:54:43;;;;;;;7.75;7.10;;;17.20;99.90;;;;;;4995760;28;20738;-69
2021/09/26 02:57:10;;;;;;;6.83;6.20;;;17.30;99.90;;;;;;4998502;28;20230;-68
2021/09/26 02:59:37;;;;;;;8.13;7.00;;;17.20;99.90;;;;;;4997948;28;20418;-69
2021/09/26 03:02:03;;;;;;;7.47;6.77;;;17.20;99.90;;;;;;4997755;28;20408;-68
2021/09/26 03:04:29;;;;;;;7.37;6.60;;;17.30;99.90;;;;;;4996781;28;20516;-70
2021/09/26 03:06:55;;;;;;;7.63;6.93;;;17.30;99.90;;;;;;4996323;28;20439;-70
2021/09/26 03:09:21;;;;;;;6.70;6.10;;;17.30;99.90;;;;;;4997751;28;20501;-69
2021/09/26 03:11:47;;;;;;;7.43;6.70;;;17.30;99.90;;;;;;4996971;28;20421;-69
2021/09/26 03:14:13;;;;;;;6.90;6.20;;;17.30;99.90;;;;;;4995844;28;20180;-70
2021/09/26 03:16:39;;;;;;;7.17;6.47;;;17.30;99.90;;;;;;4996624;28;20213;-69
2021/09/26 03:19:05;;;;;;;6.93;6.23;;;17.30;99.90;;;;;;4996927;28;20188;-69
2021/09/26 03:21:31;;;;;;;6.30;5.70;;;17.30;99.90;;;;;;4996814;28;20431;-69
2021/09/26 03:23:58;;;;;;;7.47;6.43;;;17.30;99.90;;;;;;4996718;28;20745;-69
2021/09/26 03:26:23;;;;;;;7.00;6.30;;;17.30;99.90;;;;;;4996299;28;20288;-69
2021/09/26 03:28:49;;;;;;;9.33;7.10;;;17.30;99.90;;;;;;4997191;28;20921;-68
2021/09/26 03:31:17;;;;;;;7.20;6.50;;;17.30;99.90;;;;;;4996385;28;20502;-69
2021/09/26 03:33:43;;;;;;;7.67;6.87;;;17.40;99.90;;;;;;4996567;28;20395;-70
2021/09/26 03:36:09;;;;;;;7.10;6.50;;;17.40;99.90;;;;;;4996235;28;21023;-70
2021/09/26 03:38:34;;;;;;;7.43;6.83;;;17.40;99.90;;;;;;4995193;28;20439;-70
2021/09/26 03:41:00;;;;;;;7.13;5.93;;;17.40;99.90;;;;;;4996136;28;20545;-70
2021/09/26 03:43:25;;;;;;;7.60;6.90;;;17.40;99.90;;;;;;4996421;28;20176;-69
2021/09/26 03:45:51;;;;;;;7.50;6.80;;;17.30;99.90;;;;;;4994980;28;20432;-69
2021/09/26 03:48:19;;;;;;;8.77;6.50;;;17.30;99.90;;;;;;4996331;28;20191;-69
2021/09/26 03:50:44;;;;;;;7.53;6.80;;;17.30;99.90;;;;;;4996378;28;20195;-68
2021/09/26 03:53:10;;;;;;;7.00;6.40;;;17.30;99.90;;;;;;4995841;28;20412;-68
2021/09/26 03:55:36;;;;;;;6.70;6.03;;;17.30;99.90;;;;;;4996139;28;20226;-69
2021/09/26 03:58:02;;;;;;;6.77;5.87;;;17.30;99.90;;;;;;4995975;28;20230;-70
2021/09/26 04:00:27;;;;;;;7.10;6.50;;;17.30;99.90;;;;;;4996083;28;20214;-70
2021/09/26 04:02:53;;;;;;;7.70;6.97;;;17.30;99.90;;;;;;4995933;28;20176;-70
2021/09/26 04:05:18;;;;;;;6.80;6.10;;;17.30;99.90;;;;;;4995567;28;20208;-69
2021/09/26 04:07:44;;;;;;;7.17;6.50;;;17.40;99.90;;;;;;4995459;28;20693;-69
2021/09/26 04:10:10;;;;;;;7.13;6.53;;;17.40;99.90;;;;;;4995827;28;20184;-69
2021/09/26 04:12:37;;;;;;;6.43;5.93;;;17.40;99.90;;;;;;4996239;28;20172;-69
2021/09/26 04:15:04;;;;;;;7.30;6.60;;;17.40;99.90;;;;;;4995722;28;20419;-70
2021/09/26 04:17:29;;;;;;;7.00;6.40;;;17.50;99.90;;;;;;4995441;28;20518;-70
2021/09/26 04:19:55;;;;;;;6.80;6.23;;;17.50;99.90;;;;;;4995470;28;20435;-70
2021/09/26 04:22:20;;;;;;;10.10;7.37;;;17.50;99.90;;;;;;4995493;28;20179;-69
2021/09/26 04:24:46;;;;;;;6.80;6.17;;;17.50;99.90;;;;;;4995439;28;20302;-70
2021/09/26 04:27:11;;;;;;;6.93;6.23;;;17.50;99.90;;;;;;4995107;28;20184;-69
2021/09/26 04:29:37;;;;;;;7.87;7.17;;;17.50;99.90;;;;;;4993718;28;20279;-69
2021/09/26 04:32:03;;;;;;;7.27;6.57;;;17.50;99.90;;;;;;4995192;28;20194;-69
2021/09/26 04:34:28;;;;;;;7.40;6.70;;;17.50;99.90;;;;;;4995161;28;20180;-70
2021/09/26 04:36:55;;;;;;;7.60;6.90;;;17.50;99.90;;;;;;4994491;28;20409;-69
2021/09/26 04:39:21;;;;;;;7.60;6.90;;;17.50;99.90;;;;;;4994963;28;20192;-69
2021/09/26 04:41:47;;;;;;;7.10;6.50;;;17.50;99.90;;;;;;4995657;28;20792;-69
2021/09/26 04:44:12;;;;;;;6.90;6.30;;;17.40;99.90;;;;;;4994510;28;20438;-69
2021/09/26 04:46:38;;;;;;;11.30;6.67;;;17.40;99.90;;;;;;4994379;28;20203;-69
2021/09/26 04:49:04;;;;;;;7.07;6.43;;;17.40;99.90;;;;;;4994725;28;20238;-68
2021/09/26 04:51:30;;;;;;;7.17;6.60;;;17.40;99.90;;;;;;4994777;28;20525;-69
2021/09/26 04:53:55;;;;;;;6.97;6.37;;;17.40;99.90;;;;;;4994136;28;20267;-68
2021/09/26 04:56:21;;;;;;;8.87;6.63;;;17.40;99.90;;;;;;4994721;28;20419;-69
2021/09/26 04:58:46;;;;;;;8.27;6.53;;;17.40;99.90;;;;;;4994760;28;20250;-69
2021/09/26 05:01:12;;;;;;;8.10;7.30;;;17.40;99.90;;;;;;4994723;28;20188;-69
2021/09/26 05:03:37;;;;;;;8.37;7.47;;;17.40;99.90;;;;;;4995003;28;20172;-69
2021/09/26 05:06:03;;;;;;;7.50;6.90;;;17.40;99.90;;;;;;4994374;28;20200;-69
2021/09/26 05:08:29;;;;;;;8.20;7.40;;;17.40;99.90;;;;;;4993383;28;20232;-70
2021/09/26 05:10:54;;;;;;;7.90;7.07;;;17.40;99.90;;;;;;4994785;28;20222;-70
2021/09/26 05:13:20;;;;;;;7.93;7.23;;;17.40;99.90;;;;;;4992659;28;20223;-69
2021/09/26 05:15:46;;;;;;;8.90;8.03;;;17.40;99.90;;;;;;4994162;28;20176;-69
2021/09/26 05:18:12;;;;;;;7.90;7.20;;;17.30;99.90;;;;;;4994382;28;20206;-69
2021/09/26 05:20:38;;;;;;;8.53;7.73;;;17.30;99.90;;;;;;4993384;28;20626;-70
2021/09/26 05:23:03;;;;;;;7.20;6.60;;;17.30;99.90;;;;;;4994435;28;20430;-71
2021/09/26 05:25:29;;;;;;;8.67;7.90;;;17.40;99.90;;;;;;4994632;28;20669;-70
2021/09/26 05:27:55;;;;;;;8.63;7.73;;;17.40;99.90;;;;;;4994394;28;20665;-70
2021/09/26 05:30:20;;;;;;;7.90;7.20;;;17.40;99.90;;;;;;4995513;28;20420;-69
2021/09/26 05:32:46;;;;;;;7.97;7.23;;;17.40;99.90;;;;;;4995461;28;20179;-69
2021/09/26 05:35:12;;;;;;;8.47;7.67;;;17.30;99.90;;;;;;4996213;28;20259;-69
2021/09/26 05:37:38;;;;;;;7.90;7.20;;;17.30;99.90;;;;;;5001457;28;20192;-69
2021/09/26 05:40:04;;;;;;;8.77;7.87;;;17.30;99.90;;;;;;5013498;28;20407;-70
2021/09/26 05:42:29;;;;;;;9.17;8.37;;;17.30;99.90;;;;;;5006313;28;20239;-69
2021/09/26 05:44:55;;;;;;;8.70;8.00;;;17.30;99.90;;;;;;5004621;28;20458;-70
2021/09/26 05:47:20;;;;;;;8.67;7.90;;;17.30;99.90;;;;;;5015698;28;20199;-69
2021/09/26 05:49:46;;;;;;;8.20;7.47;;;17.30;99.90;;;;;;5007685;28;20223;-70
2021/09/26 05:52:11;;;;;;;8.57;7.77;;;17.30;99.90;;;;;;4994972;28;20208;-71
2021/09/26 05:54:39;;;;;;;8.37;7.60;;;17.30;99.90;;;;;;4994181;28;20195;-68
2021/09/26 05:57:05;;;;;;;8.40;7.60;;;17.30;99.90;;;;;;4993173;28;20179;-69
2021/09/26 05:59:36;;;;;;;9.20;8.33;;;17.30;99.90;;;;;;4994028;28;20490;-69
2021/09/26 06:02:02;;;;;;;9.13;8.33;;;17.30;99.90;;;;;;4995524;28;20442;-70
2021/09/26 06:04:27;;;;;;;9.37;8.50;;;17.40;99.90;;;;;;4997214;28;21039;-68
2021/09/26 06:06:53;;;;;;;9.50;8.60;;;17.40;99.90;;;;;;4998551;28;20415;-68
2021/09/26 06:09:18;;;;;;;9.37;8.40;;;17.40;99.90;;;;;;4999864;28;20188;-69
2021/09/26 06:11:44;;;;;;;9.93;8.90;;;17.50;99.90;;;;;;4999240;28;20172;-70
2021/09/26 06:14:09;;;;;;;8.73;8.03;;;17.50;99.90;;;;;;4997818;28;20183;-69
2021/09/26 06:16:35;;;;;;;9.03;8.13;;;17.50;99.90;;;;;;4999023;28;20203;-69
2021/09/26 06:19:00;;;;;;;9.20;8.40;;;17.60;99.90;;;;;;5000168;28;20202;-69
2021/09/26 06:21:26;;;;;;;9.17;8.27;;;17.60;99.90;;;;;;5000386;28;20184;-69
2021/09/26 06:23:51;;;;;;;9.77;8.87;;;17.60;99.90;;;;;;5000047;28;20188;-70
2021/09/26 06:26:18;;;;;;;9.17;8.17;;;17.70;99.90;;;;;;4997497;28;20215;-69
2021/09/26 06:28:44;;;;;;;9.37;8.57;;;17.70;99.90;;;;;;4997714;28;20238;-69
2021/09/26 06:31:09;;;;;;;9.33;8.53;;;17.70;99.90;;;;;;4997684;28;20411;-70
2021/09/26 06:33:35;;;;;;;9.90;9.00;;;17.70;99.90;;;;;;4997574;28;20172;-70
2021/09/26 06:36:01;;;;;;;9.43;8.53;;;17.70;99.90;;;;;;4997167;28;20184;-70
2021/09/26 06:38:26;;;;;;;8.20;7.50;;;17.70;99.90;;;;;;4997828;28;20534;-70
2021/09/26 06:40:52;;;;;;;8.87;8.17;;;17.80;99.90;;;;;;4997604;28;20181;-69
2021/09/26 06:43:17;;;;;;;9.33;8.43;;;17.90;99.90;;;;;;4999213;28;20212;-70
2021/09/26 06:45:43;;;;;;;10.63;9.53;;;17.90;99.90;;;;;;4997514;28;20250;-70
2021/09/26 06:48:08;;;;;;;9.20;8.40;;;17.90;99.90;;;;;;4997188;28;20196;-70
2021/09/26 06:50:34;;;;;;;11.43;8.53;;;17.90;99.90;;;;;;4997650;28;20195;-70
2021/09/26 06:52:59;;;;;;;9.27;8.40;;;17.90;99.90;;;;;;5002506;28;20172;-70
2021/09/26 06:55:25;;;;;;;9.23;8.13;;;17.90;99.90;;;;;;5006914;28;20183;-72
2021/09/26 06:57:50;;;;;;;8.90;7.97;;;18.00;99.90;;;;;;5009365;28;20230;-69
2021/09/26 07:00:16;;;;;;;8.03;7.30;;;18.00;99.90;;;;;;5010187;28;20172;-70
2021/09/26 07:02:43;;;;;;;9.53;8.63;;;18.10;99.90;;;;;;5005092;28;20195;-69
2021/09/26 07:05:09;;;;;;;9.37;8.47;;;18.10;99.90;;;;;;5002576;28;20526;-69
2021/09/26 07:07:35;;;;;;;8.33;7.50;;;18.20;99.90;;;;;;5001627;28;20525;-70
2021/09/26 07:10:00;;;;;;;9.40;8.50;;;18.30;99.90;;;;;;5006679;28;20413;-70
2021/09/26 07:12:26;;;;;;;8.83;8.03;;;18.30;99.90;;;;;;4997197;28;20179;-69
2021/09/26 07:14:52;;;;;;;9.70;8.80;;;18.40;99.90;;;;;;4997081;28;20216;-69
2021/09/26 07:17:19;;;;;;;9.30;8.40;;;18.50;99.90;;;;;;4996207;28;20212;-69
2021/09/26 07:19:45;;;;;;;8.50;7.70;;;18.50;99.90;;;;;;4997007;28;20187;-70
2021/09/26 07:22:11;;;;;;;8.77;8.03;;;18.60;99.90;;;;;;4996641;28;20801;-70
2021/09/26 07:24:36;;;;;;;7.93;7.20;;;18.70;99.90;;;;;;4996929;28;20455;-69
2021/09/26 07:27:02;;;;;;;8.43;7.63;;;18.70;99.90;;;;;;4996343;28;20268;-69
2021/09/26 07:29:28;;;;;;;9.63;8.63;;;18.80;99.90;;;;;;4996920;28;20530;-69
2021/09/26 07:31:53;;;;;;;8.83;8.03;;;18.80;99.90;;;;;;4995534;28;20171;-70
2021/09/26 07:34:19;;;;;;;9.10;8.20;;;18.90;99.90;;;;;;4996172;28;20185;-70
2021/09/26 07:36:45;;;;;;;8.77;7.97;;;18.90;99.90;;;;;;4995047;28;20183;-69
2021/09/26 07:39:10;;;;;;;8.33;7.63;;;18.90;99.90;;;;;;4996230;28;20427;-70
2021/09/26 07:41:36;;;;;;;9.20;8.30;;;19.00;99.90;;;;;;4996280;28;20176;-69
2021/09/26 07:44:01;;;;;;;9.63;8.83;;;19.00;99.90;;;;;;4995820;28;20760;-70
2021/09/26 07:46:27;;;;;;;8.50;7.70;;;19.10;99.90;;;;;;4996028;28;20287;-69
2021/09/26 07:48:53;;;;;;;8.53;7.73;;;19.10;99.90;;;;;;4996251;28;20283;-70
2021/09/26 07:51:18;;;;;;;8.83;8.03;;;19.20;99.90;;;;;;4996244;28;20188;-70
2021/09/26 07:53:44;;;;;;;9.87;8.00;;;19.30;99.90;;;;;;4996073;28;20168;-70
2021/09/26 07:56:10;;;;;;;8.77;8.07;;;19.20;99.90;;;;;;4995731;28;20712;-70
2021/09/26 07:58:36;;;;;;;8.60;7.50;;;19.30;99.90;;;;;;4995890;28;20203;-70
2021/09/26 08:01:02;;;;;;;9.07;8.20;;;19.30;99.90;;;;;;4996161;28;20183;-70
2021/09/26 08:03:28;;;;;;;9.13;7.90;;;19.40;99.90;;;;;;4995761;28;20420;-68
2021/09/26 08:05:55;;;;;;;10.80;8.47;;;19.50;99.90;;;;;;4995487;28;20286;-69
2021/09/26 08:08:21;;;;;;;9.17;8.27;;;19.40;99.90;;;;;;4995658;28;20205;-68
2021/09/26 08:10:47;;;;;;;8.67;7.97;;;19.50;99.90;;;;;;4995746;28;20920;-70
2021/09/26 08:13:12;;;;;;;9.10;8.20;;;19.50;99.90;;;;;;4995719;28;20470;-69
2021/09/26 08:15:38;;;;;;;8.87;8.07;;;19.50;99.90;;;;;;4995223;28;20188;-69
2021/09/26 08:18:03;;;;;;;9.50;8.70;;;19.50;99.90;;;;;;4995582;28;20207;-70
2021/09/26 08:20:29;;;;;;;8.97;8.17;;;19.50;99.90;;;;;;4997212;28;20504;-68
2021/09/26 08:22:55;;;;;;;8.90;8.10;;;19.50;99.90;;;;;;4995552;28;20177;-69
2021/09/26 08:25:23;;;;;;;10.83;9.10;;;19.50;99.90;;;;;;4995223;28;20204;-69
2021/09/26 08:27:50;;;;;;;9.20;8.40;;;19.50;99.90;;;;;;4993990;28;20224;-69
2021/09/26 08:30:18;;;;;;;8.83;8.10;;;19.50;99.90;;;;;;4995843;28;20414;-69
2021/09/26 08:32:47;;;;;;;9.07;8.27;;;19.50;99.90;;;;;;4995158;28;20494;-70
2021/09/26 08:35:13;;;;;;;8.90;8.00;;;19.60;99.90;;;;;;4995255;28;20415;-70
2021/09/26 08:37:39;;;;;;;9.80;8.97;;;19.70;99.90;;;;;;4995299;28;20505;-69
2021/09/26 08:40:05;;;;;;;9.53;8.63;;;19.70;99.90;;;;;;4995580;28;20411;-69
2021/09/26 08:42:32;;;;;;;8.50;7.80;;;19.80;99.90;;;;;;4995054;28;20172;-70
2021/09/26 08:44:58;;;;;;;8.57;7.77;;;19.80;99.90;;;;;;4995063;28;20462;-70
2021/09/26 08:47:24;;;;;;;9.53;8.63;;;19.90;99.90;;;;;;4995557;28;20986;-70
2021/09/26 08:49:50;;;;;;;9.70;8.53;;;20.00;99.90;;;;;;4995944;28;20887;-70
2021/09/26 08:52:16;;;;;;;9.80;8.80;;;20.00;99.90;;;;;;4995565;28;20203;-69
2021/09/26 08:54:42;;;;;;;8.63;7.83;;;20.00;99.90;;;;;;5001049;28;20423;-68
2021/09/26 08:57:08;;;;;;;9.00;8.30;;;20.10;99.90;;;;;;5000236;28;20435;-70
2021/09/26 08:59:34;;;;;;;9.80;8.80;;;20.10;99.90;;;;;;4998463;28;20786;-69
2021/09/26 09:02:02;;;;;;;9.03;8.13;;;20.10;99.90;;;;;;4999873;28;20177;-71
2021/09/26 09:04:39;;;;;;;9.07;8.27;;;20.20;99.90;;;;;;5012401;28;20178;-69
2021/09/26 09:07:07;;;;;;;12.83;8.90;;;20.30;99.90;;;;;;5006692;28;20407;-69
2021/09/26 09:09:46;;;;;;;9.10;8.20;;;20.30;99.90;;;;;;5010433;28;20407;-69
2021/09/26 09:12:11;;;;;;;8.67;7.87;;;20.40;99.90;;;;;;5003277;28;20835;-70
2021/09/26 09:15:08;;;;;;;8.70;7.90;;;20.40;99.90;;;;;;4994404;28;20427;-68
2021/09/26 09:17:38;;;;;;;8.90;8.00;;;20.50;99.90;;;;;;4993932;28;20212;-69
2021/09/26 09:20:20;;;;;;;8.83;8.00;;;20.60;99.90;;;;;;4994554;28;20415;-69
2021/09/26 09:22:51;;;;;;;8.87;8.10;;;20.70;99.90;;;;;;4994447;28;20845;-70
2021/09/26 09:25:42;;;;;;;9.97;8.63;;;20.80;99.90;;;;;;4994138;28;20458;-70
2021/09/26 09:28:12;;;;;;;8.30;7.50;;;20.90;99.90;;;;;;4993936;28;20530;-69
2021/09/26 09:31:06;;;;;;;9.30;8.50;;;20.90;99.90;;;;;;4994439;28;20900;-69
2021/09/26 09:33:43;;;;;;;8.83;8.03;;;21.00;99.90;;;;;;4991360;28;20446;-70
2021/09/26 09:36:27;;;;;;;8.03;7.33;;;21.10;99.90;;;;;;4993917;28;20435;-70
2021/09/26 09:38:55;;;;;;;8.20;7.50;;;21.20;99.90;;;;;;4994253;28;20521;-70
2021/09/26 09:41:40;;;;;;;10.20;7.60;;;21.30;99.90;;;;;;4994232;28;20411;-71
2021/09/26 09:44:08;;;;;;;7.90;7.20;;;21.50;99.90;;;;;;4994473;28;20442;-70
2021/09/26 09:46:40;;;;;;;8.40;7.60;;;21.50;99.90;;;;;;4993558;28;20494;-70
2021/09/26 09:49:17;;;;;;;8.10;7.33;;;21.60;99.90;;;;;;4993756;28;20477;-71
2021/09/26 09:51:58;;;;;;;7.53;6.83;;;21.50;99.90;;;;;;4994137;28;21011;-70
2021/09/26 09:54:39;;;;;;;7.83;7.10;;;21.60;99.90;;;;;;4994699;28;20388;-70
2021/09/26 09:57:21;;;;;;;7.80;6.00;;;21.70;99.90;;;;;;4993730;28;21082;-70
2021/09/26 09:59:47;;;;;;;6.80;6.20;;;21.80;99.90;;;;;;4994297;28;20411;-70
2021/09/26 10:02:14;;;;;;;7.60;6.17;;;21.90;99.90;;;;;;4994060;28;20773;-70
2021/09/26 10:04:47;;;;;;;6.50;5.93;;;21.90;99.90;;;;;;4994066;28;20586;-70
2021/09/26 10:07:27;;;;;;;7.70;5.90;;;21.90;99.90;;;;;;4993962;28;20509;-70
2021/09/26 10:09:54;;;;;;;6.33;5.57;;;21.90;99.90;;;;;;4973523;28;20498;-70
2021/09/26 10:12:25;;;;;;;6.83;5.63;;;21.70;99.90;;;;;;4975092;28;20763;-70
2021/09/26 10:14:54;;;;;;;8.00;6.10;;;21.70;99.90;;;;;;4974625;28;20446;-70
2021/09/26 10:17:20;;;;;;;6.63;6.03;;;21.70;99.90;;;;;;4974211;28;20992;-70
2021/09/26 10:19:46;;;;;;;5.83;5.33;;;21.80;99.90;;;;;;4988455;28;20423;-69
2021/09/26 10:22:15;;;;;;;6.10;5.50;;;21.90;99.90;;;;;;4994215;28;20438;-69
2021/09/26 10:24:46;;;;;;;7.20;5.90;;;21.90;99.90;;;;;;4993958;28;20283;-69
2021/09/26 10:27:14;;;;;;;5.87;5.33;;;21.90;99.90;;;;;;4993586;28;20434;-69
2021/09/26 10:29:42;;;;;;;5.57;5.07;;;21.80;99.90;;;;;;4993995;28;20473;-69
2021/09/26 10:32:12;;;;;;;6.95;5.70;;;21.90;99.90;;;;;;4991656;28;20419;-69
2021/09/26 10:34:38;;;;;;;6.10;5.50;;;22.00;99.90;;;;;;4993872;28;20243;-69
2021/09/26 10:37:10;;;;;;;5.80;5.30;;;22.10;99.90;;;;;;4993346;28;20478;-70
2021/09/26 10:39:37;;;;;;;6.57;5.77;;;22.10;99.90;;;;;;4993554;28;20772;-69
2021/09/26 10:42:07;;;;;;;11.30;5.43;;;22.20;99.90;;;;;;4993483;28;20411;-69
2021/09/26 10:44:58;;;;;;;6.10;5.50;;;22.20;99.90;;;;;;4993735;28;20407;-70
2021/09/26 10:47:28;;;;;;;5.53;5.03;;;22.20;99.90;;;;;;4992666;28;20843;-69
2021/09/26 10:50:12;;;;;;;5.77;5.27;;;22.30;99.90;;;;;;4993725;28;20427;-69
2021/09/26 10:52:44;;;;;;;7.70;5.40;;;22.40;99.90;;;;;;4996643;28;20530;-70
2021/09/26 10:55:17;;;;;;;6.67;5.97;;;22.50;99.90;;;;;;4996312;28;20842;-70
2021/09/26 10:57:47;;;;;;;7.77;6.40;;;22.50;99.90;;;;;;4996714;28;20832;-70
2021/09/26 11:00:33;;;;;;;5.83;5.33;;;22.50;99.90;;;;;;4997113;28;20416;-70
2021/09/26 11:03:09;;;;;;;5.83;5.33;;;22.60;99.90;;;;;;4996215;28;20442;-69
2021/09/26 11:05:34;;;;;;;5.83;5.23;;;22.70;99.90;;;;;;4994953;28;20462;-70
2021/09/26 11:08:02;;;;;;;5.70;4.70;;;22.70;99.90;;;;;;4996764;28;20436;-70
2021/09/26 11:10:40;;;;;;;6.78;5.40;;;22.60;99.90;;;;;;4996606;28;20447;-69
2021/09/26 11:13:12;;;;;;;5.83;5.33;;;22.60;99.90;;;;;;4997033;28;20638;-69
2021/09/26 11:15:57;;;;;;;6.60;5.40;;;22.60;99.90;;;;;;4996280;28;20423;-70
2021/09/26 11:18:45;;;;;;;8.03;5.70;;;22.60;99.90;;;;;;4996407;28;21031;-70
2021/09/26 11:21:44;;;;;;;6.80;5.57;;;22.60;99.90;;;;;;4996787;28;20506;-70
2021/09/26 11:24:12;;;;;;;5.50;5.00;;;22.70;99.90;;;;;;4996627;28;20711;-70
2021/09/26 11:27:07;;;;;;;7.00;5.60;;;22.70;99.90;;;;;;4996091;28;20455;-71
2021/09/26 11:29:39;;;;;;;6.30;5.70;;;22.80;99.90;;;;;;4996509;28;20415;-70
2021/09/26 11:32:16;;;;;;;6.00;5.40;;;22.80;99.90;;;;;;4996283;28;20521;-70
2021/09/26 11:34:45;;;;;;;5.73;5.23;;;22.80;99.90;;;;;;4996395;28;20423;-70
2021/09/26 11:37:12;;;;;;;10.60;6.37;;;22.90;99.90;;;;;;4995718;28;20836;-71
2021/09/26 11:39:40;;;;;;;6.37;5.77;;;23.00;99.90;;;;;;4996034;28;20427;-70
2021/09/26 11:42:32;;;;;;;5.90;5.50;;;23.00;99.90;;;;;;4994811;28;20407;-71
2021/09/26 11:44:59;;;;;;;6.00;5.47;;;23.00;99.90;;;;;;4996324;28;20455;-68
2021/09/26 11:47:26;;;;;;;6.23;5.63;;;23.20;99.90;;;;;;4995678;28;20483;-69
2021/09/26 11:49:52;;;;;;;5.90;5.30;;;23.20;99.90;;;;;;4996187;28;20432;-69
2021/09/26 11:52:22;;;;;;;5.80;5.20;;;23.30;99.90;;;;;;4994783;28;20426;-70
2021/09/26 11:54:47;;;;;;;5.60;5.10;;;23.20;99.90;;;;;;4995942;28;20597;-69
2021/09/26 11:57:13;;;;;;;5.83;5.33;;;23.30;99.90;;;;;;4995724;28;20447;-70
2021/09/26 11:59:41;;;;;;;6.07;5.47;;;23.30;99.90;;;;;;4995890;28;20172;-68
2021/09/26 12:02:17;;;;;;;5.23;4.80;;;23.30;99.90;;;;;;4996470;28;20180;-69
2021/09/26 12:04:44;;;;;;;6.10;5.50;;;23.30;99.90;;;;;;4997394;28;20453;-70
2021/09/26 12:07:10;;;;;;;6.93;4.57;;;23.30;99.90;;;;;;4997137;28;20426;-70
2021/09/26 12:09:40;;;;;;;5.27;4.87;;;23.20;99.90;;;;;;4999243;28;20418;-70
2021/09/26 12:12:18;;;;;;;5.63;4.93;;;23.20;99.90;;;;;;5004777;28;20400;-71
2021/09/26 12:14:48;;;;;;;7.50;5.60;;;23.20;99.90;;;;;;5014641;28;20470;-70
2021/09/26 12:17:23;;;;;;;5.33;4.83;;;23.20;99.90;;;;;;5012095;28;20539;-69
2021/09/26 12:19:48;;;;;;;6.13;4.63;;;23.10;99.90;;;;;;5013343;28;20415;-70
2021/09/26 12:22:17;;;;;;;5.10;3.93;;;23.00;99.90;;;;;;5017190;28;20493;-70
2021/09/26 12:24:58;;;;;;;4.87;4.40;;;23.00;99.90;;;;;;5016663;28;20180;-70
2021/09/26 12:27:38;;;;;;;4.63;4.13;;;23.00;99.90;;;;;;4997126;28;20450;-71
2021/09/26 12:30:07;;;;;;;4.67;4.27;;;23.00;99.90;;;;;;4996253;28;20423;-69
2021/09/26 12:32:39;;;;;;;5.43;4.33;;;22.90;99.90;;;;;;4995646;28;20498;-70
2021/09/26 12:35:11;;;;;;;7.47;4.60;;;22.80;99.90;;;;;;4995679;28;20412;-70
2021/09/26 12:37:50;;;;;;;5.13;4.23;;;22.90;99.90;;;;;;4994910;28;20427;-70
2021/09/26 12:40:22;;;;;;;5.00;4.60;;;23.00;99.90;;;;;;4995195;28;20423;-70
2021/09/26 12:42:50;;;;;;;5.50;4.63;;;22.90;99.90;;;;;;4994789;28;20423;-70
2021/09/26 12:45:40;;;;;;;4.80;4.30;;;22.90;99.90;;;;;;4993885;28;20486;-70
2021/09/26 12:48:08;;;;;;;4.40;4.00;;;23.00;99.90;;;;;;4994393;28;20451;-70
2021/09/26 12:50:38;;;;;;;5.90;4.00;;;23.10;99.90;;;;;;4994929;28;20489;-70
2021/09/26 12:53:06;;;;;;;5.43;4.60;;;23.20;99.90;;;;;;4994595;28;20452;-71
2021/09/26 12:55:34;;;;;;;6.20;4.53;;;23.20;99.90;;;;;;4997609;28;20407;-71